Time;durP1;ratioP1;P1;durP2;ratioP2;P2;SDS_P1;SDS_P2;PMS_P1;PMS_P2;Temp;Humidity;BMP_temperature;BMP_pressure;BME280_temperature;BME280_humidity;BME280_pressure;Samples;Min_cycle;Max_cycle;Signal;HPM_P1;HPM_P2
2022/12/31 00:00:07;;;;;;;2.15;1.30;;;;;;;9.59;100.00;93949.84;5048377;28;20106;-64
2022/12/31 00:02:34;;;;;;;2.22;1.10;;;;;;;9.55;100.00;93948.34;5048607;28;20413;-64
2022/12/31 00:05:01;;;;;;;1.90;0.88;;;;;;;9.45;100.00;93960.97;5030779;28;20056;-64
2022/12/31 00:07:28;;;;;;;3.07;1.20;;;;;;;9.42;100.00;93959.06;5049201;28;20498;-65
2022/12/31 00:09:55;;;;;;;2.50;1.02;;;;;;;9.48;100.00;93960.16;5050567;28;20052;-64
2022/12/31 00:12:21;;;;;;;2.72;1.30;;;;;;;9.44;100.00;93975.06;5052404;28;20071;-65
2022/12/31 00:14:48;;;;;;;2.70;1.40;;;;;;;9.40;100.00;93975.88;5050965;28;20060;-66
2022/12/31 00:17:15;;;;;;;2.72;1.50;;;;;;;9.39;100.00;93970.81;5052545;28;20041;-65
2022/12/31 00:19:42;;;;;;;3.10;1.43;;;;;;;9.34;100.00;93974.78;5052174;28;20055;-62
2022/12/31 00:22:08;;;;;;;2.33;1.20;;;;;;;9.40;100.00;93970.41;5033631;28;20119;-63
2022/12/31 00:24:35;;;;;;;2.97;1.48;;;;;;;9.45;100.00;93960.97;5048971;28;20491;-64
2022/12/31 00:27:02;;;;;;;3.13;1.35;;;;;;;9.42;100.00;93983.72;5046189;28;20474;-64
2022/12/31 00:29:28;;;;;;;3.50;1.80;;;;;;;9.31;100.00;93970.09;5052323;28;20041;-64
2022/12/31 00:31:55;;;;;;;2.83;1.50;;;;;;;9.27;100.00;93977.56;5051594;28;20051;-64
2022/12/31 00:34:22;;;;;;;3.38;1.60;;;;;;;9.24;100.00;93972.16;5050777;28;20040;-64
2022/12/31 00:36:49;;;;;;;3.63;1.60;;;;;;;9.18;100.00;93982.75;5051587;28;20410;-63
2022/12/31 00:39:15;;;;;;;4.07;1.67;;;;;;;9.14;100.00;93982.00;5051673;28;20108;-64
2022/12/31 00:41:42;;;;;;;4.80;2.55;;;;;;;9.08;100.00;93975.41;5051722;28;20068;-67
2022/12/31 00:44:13;;;;;;;5.27;2.33;;;;;;;8.96;100.00;93969.25;5051235;28;20048;-64
2022/12/31 00:46:40;;;;;;;3.50;1.90;;;;;;;8.88;100.00;93977.94;5052083;28;20041;-62
2022/12/31 00:49:06;;;;;;;4.20;2.28;;;;;;;8.78;100.00;93974.09;5051151;28;20406;-64
2022/12/31 00:51:32;;;;;;;4.32;1.80;;;;;;;8.71;100.00;93979.59;5051904;28;20406;-63
2022/12/31 00:53:59;;;;;;;3.53;1.83;;;;;;;8.67;100.00;93968.69;5051140;28;20098;-63
2022/12/31 00:56:28;;;;;;;3.23;1.90;;;;;;;8.65;100.00;93968.28;5051605;28;20405;-64
2022/12/31 00:58:55;;;;;;;4.35;1.70;;;;;;;8.66;100.00;93956.19;5051045;28;20094;-64
2022/12/31 01:01:25;;;;;;;2.88;1.60;;;;;;;8.66;100.00;93961.66;5051630;28;20041;-64
2022/12/31 01:03:55;;;;;;;3.30;1.85;;;;;;;8.60;100.00;93966.00;5051306;28;20045;-64
2022/12/31 01:06:22;;;;;;;4.22;2.40;;;;;;;8.53;100.00;93987.91;5037992;28;20067;-64
2022/12/31 01:08:50;;;;;;;3.57;1.90;;;;;;;8.54;100.00;93978.56;5051282;28;20040;-63
2022/12/31 01:11:23;;;;;;;3.95;1.90;;;;;;;8.49;100.00;93984.44;5051139;28;20037;-63
2022/12/31 01:13:55;;;;;;;3.42;2.08;;;;;;;8.48;100.00;93983.66;5051267;28;20057;-63
2022/12/31 01:16:26;;;;;;;3.78;2.15;;;;;;;8.49;100.00;93987.16;5026992;28;20041;-64
2022/12/31 01:18:53;;;;;;;3.42;2.15;;;;;;;8.48;100.00;93993.81;5037830;28;20697;-63
2022/12/31 01:21:21;;;;;;;3.50;1.90;;;;;;;8.45;100.00;93998.16;5046506;28;20398;-64
2022/12/31 01:23:48;;;;;;;4.57;2.20;;;;;;;8.37;100.00;93994.63;5050921;28;20114;-63
2022/12/31 01:26:16;;;;;;;4.22;2.15;;;;;;;8.34;100.00;94013.78;5037245;28;20063;-63
2022/12/31 01:28:43;;;;;;;4.38;2.10;;;;;;;8.37;100.00;94016.50;5037780;28;20045;-63
2022/12/31 01:31:13;;;;;;;3.50;2.10;;;;;;;8.43;100.00;94027.06;5017284;28;20041;-63
2022/12/31 01:33:41;;;;;;;4.30;2.50;;;;;;;8.46;100.00;94024.31;5044943;28;20041;-63
2022/12/31 01:36:11;;;;;;;3.85;2.30;;;;;;;8.44;100.00;94025.88;5049814;28;20800;-63
2022/12/31 01:38:39;;;;;;;4.28;2.20;;;;;;;8.47;100.00;94022.34;5051153;28;20665;-63
2022/12/31 01:41:07;;;;;;;3.70;2.15;;;;;;;8.50;100.00;94030.53;5050057;28;20428;-64
2022/12/31 01:43:52;;;;;;;3.40;2.10;;;;;;;8.51;100.00;94039.50;5051218;28;20067;-63
2022/12/31 01:46:34;;;;;;;4.90;2.10;;;;;;;8.52;100.00;94039.13;5025096;28;20729;-63
2022/12/31 01:49:15;;;;;;;3.72;2.20;;;;;;;8.52;100.00;94032.88;5050125;28;20053;-63
2022/12/31 01:51:47;;;;;;;19.13;10.60;;;;;;;8.51;100.00;94042.25;5026484;28;20047;-62
2022/12/31 01:54:17;;;;;;;3.75;2.22;;;;;;;8.50;100.00;94041.47;5050417;28;20415;-63
2022/12/31 01:56:47;;;;;;;3.75;2.08;;;;;;;8.50;100.00;94033.28;5042822;28;20049;-63
2022/12/31 01:59:16;;;;;;;4.57;2.40;;;;;;;8.52;100.00;94049.28;5044790;28;20041;-63
2022/12/31 02:01:45;;;;;;;4.38;1.95;;;;;;;8.53;100.00;94053.56;5049857;28;20044;-63
2022/12/31 02:04:14;;;;;;;3.55;2.13;;;;;;;8.56;100.00;94050.03;5050074;28;20059;-63
2022/12/31 02:06:46;;;;;;;3.65;2.00;;;;;;;8.58;100.00;94056.66;5050534;28;20456;-63
2022/12/31 02:09:13;;;;;;;3.70;1.90;;;;;;;8.62;100.00;94053.16;5036136;28;21705;-64
2022/12/31 02:11:39;;;;;;;4.20;2.40;;;;;;;8.59;100.00;94055.50;5023842;28;20037;-64
2022/12/31 02:14:11;;;;;;;5.75;2.10;;;;;;;8.58;100.00;94053.94;5049450;28;20097;-64
2022/12/31 02:16:59;;;;;;;3.35;1.95;;;;;;;8.63;100.00;94060.16;5050327;28;20486;-63
2022/12/31 02:20:03;;;;;;;3.70;2.30;;;;;;;8.64;100.00;94061.72;5047939;28;20880;-63
2022/12/31 02:22:48;;;;;;;3.72;1.95;;;;;;;8.67;100.00;94055.44;5037736;28;20073;-64
2022/12/31 02:26:02;;;;;;;5.90;1.80;;;;;;;8.71;100.00;94054.25;5040081;28;20218;-64
2022/12/31 02:28:45;;;;;;;3.38;1.92;;;;;;;8.68;100.00;94052.31;5029335;28;20044;-63
2022/12/31 02:31:17;;;;;;;3.50;1.92;;;;;;;8.71;100.00;94051.53;5048557;28;21723;-64
2022/12/31 02:33:52;;;;;;;3.85;1.85;;;;;;;8.77;100.00;94054.59;5049734;28;20041;-63
2022/12/31 02:36:26;;;;;;;3.63;2.22;;;;;;;8.74;100.00;94056.19;5049589;28;20053;-63
2022/12/31 02:38:54;;;;;;;3.53;1.77;;;;;;;8.84;100.00;94053.78;5049531;28;20113;-63
2022/12/31 02:44:24;;;;;;;3.70;1.80;;;;;;;8.89;100.00;94054.13;5049340;28;20401;-63
2022/12/31 02:47:06;;;;;;;4.90;2.00;;;;;;;8.92;100.00;94055.31;5049351;28;20083;-63
2022/12/31 02:49:54;;;;;;;3.05;1.90;;;;;;;8.98;100.00;94056.44;5044988;28;20037;-64
2022/12/31 02:52:59;;;;;;;6.60;2.53;;;;;;;8.95;100.00;94059.97;5028958;28;21620;-64
2022/12/31 02:55:36;;;;;;;10.02;3.40;;;;;;;8.90;100.00;94054.94;5038774;28;20874;-64
2022/12/31 03:02:12;;;;;;;8.25;3.35;;;;;;;8.95;100.00;94060.75;5048751;28;20448;-64
2022/12/31 03:06:50;;;;;;;5.43;2.13;;;;;;;8.91;100.00;94067.41;5026428;28;20049;-64
2022/12/31 03:09:17;;;;;;;7.35;2.42;;;;;;;9.04;100.00;94071.25;5049448;28;20040;-64
2022/12/31 03:14:29;;;;;;;52.65;17.55;;;;;;;9.00;100.00;94062.28;5049683;28;20550;-64
2022/12/31 03:16:56;;;;;;;21.40;7.95;;;;;;;9.05;100.00;94061.06;5049258;28;20490;-64
2022/12/31 03:22:26;;;;;;;9.25;3.85;;;;;;;9.01;100.00;94052.88;5043290;28;20147;-64
2022/12/31 03:27:49;;;;;;;9.60;5.28;;;;;;;8.99;100.00;94061.50;5047905;28;20067;-64
2022/12/31 03:30:18;;;;;;;6.00;3.80;;;;;;;8.95;100.00;94063.50;5049494;28;20041;-64
2022/12/31 03:32:46;;;;;;;4.30;2.90;;;;;;;9.05;100.00;94072.78;5048986;28;20053;-63
2022/12/31 03:35:14;;;;;;;3.47;2.00;;;;;;;9.36;100.00;94062.03;5049250;28;20039;-64
2022/12/31 03:37:42;;;;;;;2.88;1.73;;;;;;;9.57;100.00;94074.75;5049413;28;20091;-64
2022/12/31 03:40:11;;;;;;;3.15;1.45;;;;;;;9.90;100.00;94066.97;5048217;28;20712;-64
2022/12/31 03:42:39;;;;;;;3.22;1.30;;;;;;;10.09;100.00;94068.38;5049157;28;20047;-64
2022/12/31 03:45:06;;;;;;;2.80;1.40;;;;;;;10.20;100.00;94060.78;5051172;28;20045;-64
2022/12/31 03:47:33;;;;;;;2.90;1.17;;;;;;;10.32;100.00;94074.00;5052778;28;20070;-64
2022/12/31 03:50:00;;;;;;;2.28;1.27;;;;;;;10.35;100.00;94067.69;5052683;28;20045;-64
2022/12/31 03:52:27;;;;;;;2.40;1.15;;;;;;;10.32;100.00;94068.53;5052505;28;20048;-64
2022/12/31 03:54:53;;;;;;;2.30;1.30;;;;;;;10.36;100.00;94072.00;5052563;28;20124;-64
2022/12/31 03:57:20;;;;;;;2.30;1.40;;;;;;;10.39;100.00;94059.44;5052822;28;20045;-64
2022/12/31 03:59:47;;;;;;;2.25;1.20;;;;;;;10.29;100.00;94061.06;5051715;28;20075;-64
2022/12/31 04:02:13;;;;;;;2.50;1.60;;;;;;;10.17;100.00;94056.13;5052080;28;20041;-64
2022/12/31 04:04:40;;;;;;;2.63;1.70;;;;;;;10.10;100.00;94065.22;5053051;28;20044;-64
2022/12/31 04:07:07;;;;;;;3.30;1.42;;;;;;;9.98;100.00;94049.31;5051551;28;20429;-64
2022/12/31 04:09:34;;;;;;;2.60;1.17;;;;;;;9.97;100.00;94048.50;5049391;28;20134;-64
2022/12/31 04:12:00;;;;;;;2.40;1.02;;;;;;;9.94;100.00;94059.50;5042531;28;20475;-64
2022/12/31 04:14:27;;;;;;;2.00;1.10;;;;;;;9.90;100.00;94051.34;5051996;28;20059;-64
2022/12/31 04:16:54;;;;;;;2.33;1.30;;;;;;;9.86;100.00;94061.56;5043342;28;20053;-64
2022/12/31 04:19:20;;;;;;;2.35;1.35;;;;;;;9.76;100.00;94067.94;5047861;28;20049;-64
2022/12/31 04:21:47;;;;;;;3.53;1.70;;;;;;;9.71;100.00;94077.34;5045208;28;20057;-64
2022/12/31 04:24:14;;;;;;;3.38;1.63;;;;;;;9.70;100.00;94080.50;5038065;28;20063;-64
2022/12/31 04:26:42;;;;;;;2.65;1.42;;;;;;;9.69;100.00;94089.91;5038839;28;20098;-64
2022/12/31 04:29:09;;;;;;;2.42;1.42;;;;;;;9.71;100.00;94095.75;5051313;28;20547;-64
2022/12/31 04:31:36;;;;;;;2.50;1.40;;;;;;;9.66;100.00;94093.44;5025910;28;20067;-64
2022/12/31 04:34:03;;;;;;;4.00;1.33;;;;;;;9.60;100.00;94087.66;5051978;28;20039;-64
2022/12/31 04:36:30;;;;;;;2.42;1.30;;;;;;;9.57;100.00;94083.72;5038745;28;20472;-64
2022/12/31 04:38:57;;;;;;;2.55;1.58;;;;;;;9.57;100.00;94083.72;5050283;28;20045;-64
2022/12/31 04:41:25;;;;;;;2.80;1.45;;;;;;;9.47;100.00;94081.88;5051491;28;20051;-64
2022/12/31 04:43:54;;;;;;;2.65;1.48;;;;;;;9.39;100.00;94078.41;5051774;28;20417;-64
2022/12/31 04:46:26;;;;;;;2.47;1.43;;;;;;;9.34;100.00;94069.88;5051528;28;20478;-64
2022/12/31 04:48:53;;;;;;;3.83;1.42;;;;;;;9.32;100.00;94077.72;5051513;28;20043;-64
2022/12/31 04:51:21;;;;;;;2.88;1.60;;;;;;;9.30;100.00;94078.09;5051385;28;20405;-64
2022/12/31 04:53:48;;;;;;;2.60;1.48;;;;;;;9.32;100.00;94072.22;5051344;28;20053;-64
2022/12/31 04:56:16;;;;;;;2.85;1.50;;;;;;;9.32;100.00;94064.78;5051170;28;20051;-64
2022/12/31 04:58:42;;;;;;;3.23;1.73;;;;;;;9.28;100.00;94079.69;5051652;28;20401;-63
2022/12/31 05:01:10;;;;;;;3.10;1.55;;;;;;;9.24;100.00;94078.94;5051014;28;20047;-64
2022/12/31 05:03:37;;;;;;;2.40;1.67;;;;;;;9.19;100.00;94086.41;5039186;28;20049;-64
2022/12/31 05:06:07;;;;;;;2.53;1.40;;;;;;;9.13;100.00;94092.69;5050625;28;20037;-64
2022/12/31 05:08:33;;;;;;;4.78;2.55;;;;;;;8.99;100.00;94096.31;5051505;28;20049;-64
2022/12/31 05:11:00;;;;;;;3.13;1.77;;;;;;;8.95;100.00;94098.28;5051018;28;20680;-64
2022/12/31 05:13:27;;;;;;;3.17;1.70;;;;;;;8.93;100.00;94100.63;5051479;28;20412;-65
2022/12/31 05:16:00;;;;;;;3.10;1.88;;;;;;;8.94;100.00;94102.97;5051044;28;20117;-64
2022/12/31 05:18:27;;;;;;;3.10;1.75;;;;;;;8.94;100.00;94107.69;5049866;28;20080;-64
2022/12/31 05:20:54;;;;;;;2.80;1.70;;;;;;;8.91;100.00;94125.66;5045415;28;20037;-64
2022/12/31 05:23:21;;;;;;;22.83;10.93;;;;;;;8.86;100.00;94115.16;5051252;28;20045;-64
2022/12/31 05:25:48;;;;;;;3.63;1.77;;;;;;;8.91;100.00;94117.47;5041186;28;20486;-64
2022/12/31 05:28:15;;;;;;;2.92;1.40;;;;;;;8.94;100.00;94126.84;5051118;28;20090;-64
2022/12/31 05:30:43;;;;;;;4.35;1.83;;;;;;;8.98;100.00;94135.81;5050230;28;20110;-63
2022/12/31 05:33:10;;;;;;;3.55;1.80;;;;;;;9.00;100.00;94125.25;5050800;28;20127;-64
2022/12/31 05:35:36;;;;;;;2.50;1.40;;;;;;;9.06;100.00;94131.09;5051012;28;20106;-64
2022/12/31 05:38:03;;;;;;;2.80;1.20;;;;;;;9.06;100.00;94125.59;5050330;28;20033;-64
2022/12/31 05:40:30;;;;;;;3.20;2.10;;;;;;;9.08;100.00;94115.03;5065669;28;20067;-64
2022/12/31 05:42:56;;;;;;;3.00;1.58;;;;;;;9.08;100.00;94132.22;5036322;28;20049;-64
2022/12/31 05:45:23;;;;;;;2.70;1.60;;;;;;;9.15;100.00;94128.66;5050333;28;20044;-64
2022/12/31 05:47:56;;;;;;;3.00;1.70;;;;;;;9.16;100.00;94124.75;5050318;28;20045;-64
2022/12/31 05:50:23;;;;;;;2.58;1.60;;;;;;;9.15;100.00;94123.97;5050712;28;20044;-64
2022/12/31 05:52:50;;;;;;;3.40;1.60;;;;;;;9.20;100.00;94122.78;5049151;28;20162;-64
2022/12/31 05:55:16;;;;;;;3.15;1.42;;;;;;;9.21;100.00;94121.56;5050370;28;20110;-65
2022/12/31 05:57:43;;;;;;;3.15;1.52;;;;;;;9.21;100.00;94121.56;5050490;28;20086;-64
2022/12/31 06:00:10;;;;;;;2.70;1.60;;;;;;;9.22;100.00;94117.69;5050883;28;20045;-64
2022/12/31 06:02:37;;;;;;;2.63;1.55;;;;;;;9.24;100.00;94107.09;5050412;28;20071;-64
2022/12/31 06:05:05;;;;;;;3.55;1.50;;;;;;;9.35;100.00;94105.03;5048633;28;20045;-65
2022/12/31 06:07:32;;;;;;;3.55;1.75;;;;;;;9.39;100.00;94113.25;5049222;28;20049;-64
2022/12/31 06:09:58;;;;;;;2.55;1.58;;;;;;;9.47;100.00;94111.22;5050130;28;20071;-64
2022/12/31 06:12:25;;;;;;;2.70;1.60;;;;;;;9.48;100.00;94104.59;5050065;28;20075;-64
2022/12/31 06:14:52;;;;;;;2.67;1.50;;;;;;;9.57;100.00;94105.66;5050044;28;20049;-64
2022/12/31 06:17:21;;;;;;;2.65;1.50;;;;;;;9.64;100.00;94107.56;5049901;28;20041;-64
2022/12/31 06:19:48;;;;;;;4.82;2.08;;;;;;;9.66;100.00;94109.88;5049920;28;20041;-64
2022/12/31 06:22:15;;;;;;;4.38;2.08;;;;;;;9.74;100.00;94123.13;5044532;28;20144;-64
2022/12/31 06:24:42;;;;;;;3.50;2.07;;;;;;;9.77;100.00;94119.56;5033671;28;20084;-65
2022/12/31 06:27:08;;;;;;;2.83;1.52;;;;;;;9.97;100.00;94138.19;5023850;28;21513;-65
2022/12/31 06:29:35;;;;;;;4.07;1.70;;;;;;;10.01;100.00;94141.69;5023993;28;20041;-65
2022/12/31 06:32:02;;;;;;;4.80;2.08;;;;;;;10.00;100.00;94151.88;5022698;28;23061;-65
2022/12/31 06:34:29;;;;;;;3.20;2.03;;;;;;;9.87;100.00;94150.81;5029723;28;20038;-65
2022/12/31 06:36:57;;;;;;;6.07;4.20;;;;;;;9.84;100.00;94148.91;5029595;28;20049;-64
2022/12/31 06:39:24;;;;;;;4.50;3.15;;;;;;;9.76;100.00;94150.91;5029651;28;20033;-64
2022/12/31 06:41:50;;;;;;;3.25;1.90;;;;;;;9.95;100.00;94135.84;5029577;28;20466;-64
2022/12/31 06:44:17;;;;;;;2.38;1.00;;;;;;;10.35;100.00;94135.50;5029851;28;20091;-64
2022/12/31 06:46:44;;;;;;;2.00;1.17;;;;;;;10.56;100.00;94132.53;5029502;28;20548;-64
2022/12/31 06:49:11;;;;;;;2.07;1.10;;;;;;;10.77;100.00;94123.25;5028237;28;20402;-65
2022/12/31 06:51:38;;;;;;;2.50;0.90;;;;;;;10.91;100.00;94125.03;5018698;28;20060;-65
2022/12/31 06:54:05;;;;;;;3.28;0.85;;;;;;;10.88;100.00;94134.06;5028973;28;20042;-65
2022/12/31 06:56:32;;;;;;;2.00;0.90;;;;;;;10.63;100.00;94134.41;5017388;28;20441;-65
2022/12/31 06:59:01;;;;;;;2.10;1.10;;;;;;;10.32;100.00;94134.38;5028757;28;20037;-65
2022/12/31 07:01:43;;;;;;;2.93;1.50;;;;;;;10.21;100.00;94136.41;5029080;28;20061;-65
2022/12/31 07:04:51;;;;;;;2.20;1.10;;;;;;;10.16;100.00;94140.38;5028578;28;20599;-65
2022/12/31 07:08:02;;;;;;;2.85;1.27;;;;;;;10.02;100.00;94147.94;5048044;28;20664;-65
2022/12/31 07:10:41;;;;;;;2.70;1.33;;;;;;;9.99;100.00;94150.31;4980605;28;20675;-65
2022/12/31 07:13:45;;;;;;;2.33;1.30;;;;;;;9.86;100.00;94143.78;5048810;28;20147;-64
2022/12/31 07:16:28;;;;;;;2.80;1.30;;;;;;;9.78;100.00;94151.28;5048320;28;20670;-65
2022/12/31 07:19:22;;;;;;;2.53;1.33;;;;;;;9.74;100.00;94156.03;5051563;28;20053;-65
2022/12/31 07:21:52;;;;;;;2.58;1.23;;;;;;;9.66;100.00;94153.72;5049537;28;20071;-65
2022/12/31 07:24:19;;;;;;;2.70;1.42;;;;;;;9.59;100.00;94169.03;5051751;28;20371;-65
2022/12/31 07:26:58;;;;;;;3.30;2.13;;;;;;;9.47;100.00;94160.53;5046296;28;20404;-65
2022/12/31 07:29:47;;;;;;;4.00;1.60;;;;;;;9.40;100.00;94173.09;5029291;28;20053;-65
2022/12/31 07:32:22;;;;;;;3.58;1.20;;;;;;;9.24;100.00;94183.78;5052654;28;20274;-65
2022/12/31 07:35:10;;;;;;;4.00;1.70;;;;;;;9.18;100.00;94174.44;5052988;28;20048;-63
2022/12/31 07:37:55;;;;;;;4.28;1.60;;;;;;;9.27;100.00;94188.44;5027754;28;20048;-63
2022/12/31 07:40:33;;;;;;;3.10;1.83;;;;;;;9.30;100.00;94186.88;5050519;28;21745;-64
2022/12/31 07:43:11;;;;;;;3.27;1.70;;;;;;;9.21;100.00;94192.78;5042699;28;20044;-64
2022/12/31 07:45:38;;;;;;;4.72;2.25;;;;;;;9.18;100.00;94191.63;5052513;28;20041;-65
2022/12/31 07:48:20;;;;;;;4.15;1.90;;;;;;;9.13;100.00;94192.03;5052620;28;20045;-65
2022/12/31 07:50:47;;;;;;;2.85;1.60;;;;;;;9.16;100.00;94201.44;5052527;28;20049;-64
2022/12/31 07:53:14;;;;;;;5.15;2.17;;;;;;;9.15;100.00;94192.41;5052709;28;20045;-64
2022/12/31 07:55:41;;;;;;;4.07;2.10;;;;;;;9.16;100.00;94195.94;5052907;28;20409;-65
2022/12/31 07:58:20;;;;;;;3.15;1.77;;;;;;;9.10;100.00;94200.28;5052105;28;20877;-65
2022/12/31 08:00:48;;;;;;;3.40;1.98;;;;;;;9.16;100.00;94198.69;5052088;28;20049;-65
2022/12/31 08:03:36;;;;;;;4.18;1.98;;;;;;;9.23;100.00;94203.34;5052930;28;20037;-65
2022/12/31 08:06:09;;;;;;;5.15;1.98;;;;;;;9.20;100.00;94208.44;5038731;28;20061;-65
2022/12/31 08:09:18;;;;;;;3.30;1.70;;;;;;;9.22;100.00;94204.53;5051165;28;20064;-65
2022/12/31 08:12:01;;;;;;;3.47;1.85;;;;;;;9.30;100.00;94208.78;5035086;28;20892;-65
2022/12/31 08:14:29;;;;;;;3.20;1.88;;;;;;;9.34;100.00;94213.06;5052379;28;20049;-65
2022/12/31 08:16:56;;;;;;;4.47;2.00;;;;;;;10.58;100.00;94212.47;5051935;28;20051;-65
2022/12/31 08:19:29;;;;;;;3.38;1.80;;;;;;;11.91;100.00;94213.53;5052203;28;20098;-65
2022/12/31 08:22:06;;;;;;;4.50;1.50;;;;;;;12.66;99.72;94208.72;5047141;28;20397;-66
2022/12/31 08:24:48;;;;;;;2.35;1.30;;;;;;;12.95;95.21;94197.91;5049037;28;20052;-66
2022/12/31 08:27:45;;;;;;;3.40;1.63;;;;;;;13.60;90.33;94199.34;5024209;28;20679;-65
2022/12/31 08:30:15;;;;;;;2.90;1.50;;;;;;;14.68;84.41;94203.06;5050636;28;21497;-66
2022/12/31 08:32:50;;;;;;;2.40;1.45;;;;;;;14.90;80.09;94200.50;5038295;28;20526;-66
2022/12/31 08:35:45;;;;;;;2.30;1.30;;;;;;;15.47;77.24;94208.41;5051484;28;20067;-65
2022/12/31 08:38:19;;;;;;;2.28;1.15;;;;;;;15.28;76.83;94199.84;5051252;28;21677;-64
2022/12/31 08:40:49;;;;;;;2.40;1.35;;;;;;;14.78;81.13;94217.81;5051354;28;20052;-64
2022/12/31 08:43:46;;;;;;;2.50;1.30;;;;;;;15.75;74.68;94215.91;5052180;28;20041;-65
2022/12/31 08:46:25;;;;;;;2.15;1.20;;;;;;;15.66;73.81;94221.28;5037632;28;20084;-65
2022/12/31 08:48:51;;;;;;;2.73;1.50;;;;;;;16.29;71.83;94211.41;5051363;28;20051;-65
2022/12/31 08:51:21;;;;;;;2.40;1.30;;;;;;;15.81;72.29;94218.09;5053427;28;20045;-65
2022/12/31 08:53:48;;;;;;;2.90;1.42;;;;;;;16.60;71.96;94221.91;5066593;28;20045;-65
2022/12/31 08:56:35;;;;;;;3.45;1.50;;;;;;;17.84;65.59;94233.78;5051665;28;20090;-65
2022/12/31 08:59:24;;;;;;;2.70;1.80;;;;;;;18.32;62.46;94240.63;5051033;28;20053;-65
2022/12/31 09:02:06;;;;;;;2.50;1.37;;;;;;;18.87;60.31;94233.66;5051048;28;20056;-65
2022/12/31 09:05:11;;;;;;;3.78;1.20;;;;;;;17.17;65.11;94242.13;5051350;28;20041;-65
2022/12/31 09:07:46;;;;;;;3.35;1.05;;;;;;;15.77;70.95;94243.09;5050400;28;20296;-64
2022/12/31 09:10:54;;;;;;;2.58;1.20;;;;;;;14.59;76.41;94247.13;5050818;28;20673;-64
2022/12/31 09:13:29;;;;;;;3.35;1.42;;;;;;;14.29;80.41;94251.75;4971105;28;20814;-64
2022/12/31 09:16:43;;;;;;;2.63;1.13;;;;;;;15.77;73.58;94248.63;4988762;28;20119;-64
2022/12/31 09:19:10;;;;;;;2.88;1.10;;;;;;;16.44;69.24;94246.97;4975623;28;20301;-64
2022/12/31 09:21:40;;;;;;;3.83;2.00;;;;;;;16.85;68.17;94245.25;5028401;28;20088;-64
2022/12/31 09:24:10;;;;;;;3.08;1.55;;;;;;;16.18;69.05;94241.47;5025098;28;20042;-64
2022/12/31 09:26:47;;;;;;;2.47;1.25;;;;;;;14.91;75.16;94245.50;5018280;28;20037;-64
2022/12/31 09:29:19;;;;;;;2.53;1.30;;;;;;;15.54;73.86;94233.88;5007272;28;20775;-64
2022/12/31 09:31:55;;;;;;;3.63;1.40;;;;;;;16.66;70.44;94239.50;5030494;28;20053;-64
2022/12/31 09:34:44;;;;;;;2.65;1.15;;;;;;;18.85;60.53;94241.69;5029890;28;20041;-65
2022/12/31 09:37:32;;;;;;;2.22;1.10;;;;;;;20.28;56.00;94251.25;5017093;28;20596;-65
2022/12/31 09:40:15;;;;;;;2.45;1.30;;;;;;;20.44;54.18;94250.09;5030548;28;20056;-65
2022/12/31 09:43:06;;;;;;;2.70;1.40;;;;;;;21.20;50.85;94236.03;5029967;28;20406;-65
2022/12/31 09:46:01;;;;;;;2.70;1.27;;;;;;;21.19;50.63;94240.06;5050149;28;21729;-65
2022/12/31 09:48:27;;;;;;;3.28;1.35;;;;;;;19.78;53.74;94243.25;5049490;28;20249;-64
2022/12/31 09:51:12;;;;;;;2.20;1.38;;;;;;;18.92;55.71;94221.94;5047773;28;20049;-65
2022/12/31 09:54:15;;;;;;;2.63;1.10;;;;;;;19.48;54.32;94229.03;5029373;28;20041;-64
2022/12/31 09:57:07;;;;;;;2.50;1.37;;;;;;;18.82;56.28;94217.59;5025171;28;20901;-64
2022/12/31 09:59:53;;;;;;;2.13;1.02;;;;;;;19.18;55.79;94218.84;5038598;28;20846;-65
2022/12/31 10:02:47;;;;;;;2.50;1.27;;;;;;;19.41;54.55;94211.88;5048034;28;20209;-64
2022/12/31 10:05:52;;;;;;;2.40;1.20;;;;;;;19.13;55.66;94206.31;5049726;28;20834;-64
2022/12/31 10:08:41;;;;;;;2.35;1.20;;;;;;;20.40;53.04;94210.47;5049476;28;20045;-64
2022/12/31 10:11:24;;;;;;;2.53;1.20;;;;;;;20.92;50.75;94197.94;5049047;28;20181;-65
2022/12/31 10:14:09;;;;;;;2.15;1.00;;;;;;;20.46;50.75;94205.81;5049979;28;20535;-64
2022/12/31 10:16:54;;;;;;;2.38;1.20;;;;;;;19.11;54.95;94201.22;5050122;28;20059;-64
2022/12/31 10:19:40;;;;;;;2.45;1.00;;;;;;;19.11;55.71;94204.00;5035727;28;21678;-64
2022/12/31 10:22:23;;;;;;;2.33;1.23;;;;;;;18.42;57.29;94187.88;5043531;28;20048;-63
2022/12/31 10:24:55;;;;;;;2.63;1.30;;;;;;;18.59;58.04;94197.44;5044159;28;20103;-63
2022/12/31 10:27:48;;;;;;;4.15;1.40;;;;;;;19.95;54.10;94202.63;5045616;28;20037;-64
2022/12/31 10:30:18;;;;;;;2.30;1.20;;;;;;;20.50;51.86;94209.97;5049317;28;20586;-64
2022/12/31 10:33:24;;;;;;;2.75;1.40;;;;;;;21.26;50.77;94203.41;5045209;28;20072;-64
2022/12/31 10:36:04;;;;;;;2.65;1.30;;;;;;;21.13;50.46;94217.66;5045469;28;20052;-64
2022/12/31 10:38:48;;;;;;;4.77;1.07;;;;;;;21.11;49.21;94212.53;5049664;28;20041;-64
2022/12/31 10:41:33;;;;;;;2.95;1.00;;;;;;;21.29;49.19;94217.19;5049082;28;20106;-64
2022/12/31 10:44:28;;;;;;;2.00;0.90;;;;;;;21.35;48.34;94220.88;5049254;28;20044;-64
2022/12/31 10:47:07;;;;;;;2.95;1.10;;;;;;;20.64;50.30;94218.91;5047981;28;20041;-65
2022/12/31 10:50:11;;;;;;;4.20;1.25;;;;;;;20.80;50.21;94206.56;5041406;28;20115;-64
2022/12/31 10:53:08;;;;;;;2.43;1.10;;;;;;;20.28;51.06;94209.47;5042314;28;20067;-64
2022/12/31 10:55:55;;;;;;;3.85;1.35;;;;;;;20.58;51.00;94187.31;5031138;28;20583;-64
2022/12/31 10:58:31;;;;;;;2.83;1.30;;;;;;;21.30;49.47;94176.84;5048862;28;21834;-64
2022/12/31 11:01:03;;;;;;;2.80;1.00;;;;;;;19.95;51.75;94185.91;5035684;28;20047;-64
2022/12/31 11:03:31;;;;;;;2.00;0.80;;;;;;;19.65;52.88;94181.34;5049099;28;20098;-64
2022/12/31 11:06:17;;;;;;;2.23;1.13;;;;;;;19.76;52.47;94184.44;5048834;28;20049;-63
2022/12/31 11:09:06;;;;;;;3.03;1.30;;;;;;;19.54;53.03;94190.97;5048711;28;20041;-63
2022/12/31 11:11:51;;;;;;;2.00;0.90;;;;;;;19.03;54.50;94199.22;5049177;28;20090;-63
2022/12/31 11:14:54;;;;;;;2.95;1.00;;;;;;;18.88;55.02;94183.16;5041757;28;20869;-64
2022/12/31 11:17:43;;;;;;;3.38;1.20;;;;;;;19.18;54.50;94193.81;5046464;28;21737;-63
2022/12/31 11:20:31;;;;;;;2.83;1.00;;;;;;;19.58;53.38;94193.59;5046820;28;20624;-64
2022/12/31 11:23:07;;;;;;;2.53;1.10;;;;;;;19.55;52.38;94188.94;5049128;28;20053;-64
2022/12/31 11:25:58;;;;;;;2.00;0.80;;;;;;;18.69;54.45;94187.91;5043151;28;20037;-64
2022/12/31 11:28:25;;;;;;;3.65;1.35;;;;;;;18.59;55.99;94191.88;5048161;28;20569;-64
2022/12/31 11:31:03;;;;;;;3.13;1.23;;;;;;;18.69;56.26;94182.34;5048867;28;20055;-64
2022/12/31 11:33:51;;;;;;;3.33;1.10;;;;;;;18.68;55.62;94182.81;5049247;28;20047;-63
2022/12/31 11:36:35;;;;;;;3.15;1.17;;;;;;;19.41;54.05;94179.22;5048470;28;21787;-64
2022/12/31 11:39:11;;;;;;;2.20;1.10;;;;;;;18.88;55.50;94177.59;5048874;28;20068;-64
2022/12/31 11:41:59;;;;;;;3.50;1.77;;;;;;;18.29;56.84;94174.88;5045674;28;20495;-63
2022/12/31 11:44:49;;;;;;;2.55;1.35;;;;;;;18.28;58.03;94176.09;5041760;28;20238;-64
2022/12/31 11:47:24;;;;;;;2.00;1.00;;;;;;;18.60;55.90;94162.09;5027583;28;20143;-64
2022/12/31 11:50:28;;;;;;;2.65;1.20;;;;;;;17.82;58.70;94167.56;5043537;28;20055;-64
2022/12/31 11:53:10;;;;;;;3.75;1.20;;;;;;;17.89;58.63;94161.03;5045450;28;20413;-64
2022/12/31 11:56:09;;;;;;;2.15;1.00;;;;;;;17.13;60.60;94158.28;5048627;28;20052;-64
2022/12/31 11:58:36;;;;;;;2.38;1.20;;;;;;;17.57;59.83;94155.44;5030162;28;20063;-63
2022/12/31 12:01:12;;;;;;;2.80;1.10;;;;;;;17.45;59.95;94152.78;5048082;28;20047;-64
2022/12/31 12:03:42;;;;;;;2.45;1.20;;;;;;;16.97;62.22;94155.72;5048618;28;20045;-63
2022/12/31 12:06:14;;;;;;;2.38;1.10;;;;;;;16.80;62.13;94146.00;5050622;28;20501;-63
2022/12/31 12:08:43;;;;;;;2.40;1.20;;;;;;;16.58;64.23;94146.78;5052555;28;20044;-63
2022/12/31 12:11:20;;;;;;;2.50;1.10;;;;;;;16.42;64.41;94144.94;5038055;28;20669;-63
2022/12/31 12:13:47;;;;;;;5.27;1.13;;;;;;;16.93;63.21;94139.19;5052094;28;20045;-63
2022/12/31 12:16:14;;;;;;;3.22;1.30;;;;;;;16.65;64.25;94140.19;5052413;28;20047;-64
2022/12/31 12:18:45;;;;;;;2.65;1.30;;;;;;;16.32;64.83;94126.69;5052465;28;20417;-63
2022/12/31 12:21:16;;;;;;;2.45;1.40;;;;;;;15.71;67.35;94120.34;5044316;28;20756;-64
2022/12/31 12:24:18;;;;;;;3.30;1.60;;;;;;;15.93;67.99;94123.97;5066809;28;20053;-60